createdAt,value
2022-12-25T00:01:32.034Z,8.97
2022-12-25T00:03:35.607Z,8.95
2022-12-25T00:05:39.577Z,8.92
2022-12-25T00:07:42.908Z,9.05
2022-12-25T00:09:46.513Z,9.09
2022-12-25T00:11:49.862Z,9.14
2022-12-25T00:13:53.179Z,8.69
2022-12-25T00:15:57.124Z,9.12
2022-12-25T00:18:01.816Z,9.17
2022-12-25T00:20:06.111Z,9.11
2022-12-25T00:22:09.650Z,9.15
2022-12-25T00:24:12.919Z,9.21
2022-12-25T00:26:18.523Z,9.26
2022-12-25T00:28:23.752Z,9.02
2022-12-25T00:30:27.194Z,9.46
2022-12-25T00:32:30.556Z,9.44
2022-12-25T00:34:35.588Z,9.63
2022-12-25T00:36:41.941Z,9.70
2022-12-25T00:38:46.468Z,9.73
2022-12-25T00:40:49.815Z,9.60
2022-12-25T00:42:53.123Z,9.83
2022-12-25T00:44:56.729Z,9.85
2022-12-25T00:47:00.252Z,9.88
2022-12-25T00:49:04.285Z,9.76
2022-12-25T00:51:12.431Z,9.86
2022-12-25T00:53:15.767Z,9.86
2022-12-25T00:55:19.140Z,9.85
2022-12-25T00:57:22.478Z,9.82
2022-12-25T00:59:25.882Z,9.80
2022-12-25T01:01:29.482Z,9.78
2022-12-25T01:03:33.077Z,9.67
2022-12-25T01:05:36.475Z,9.61
2022-12-25T01:07:41.158Z,9.58
2022-12-25T01:10:02.663Z,9.53
2022-12-25T01:12:06.246Z,9.47
2022-12-25T01:14:09.677Z,9.39
2022-12-25T01:16:13.002Z,9.32
2022-12-25T01:18:16.316Z,9.42
2022-12-25T01:20:19.786Z,9.43
2022-12-25T01:22:23.097Z,9.47
2022-12-25T01:24:27.839Z,9.52
2022-12-25T01:26:31.348Z,9.55
2022-12-25T01:28:34.923Z,9.53
2022-12-25T01:30:38.472Z,9.48
2022-12-25T01:32:41.824Z,9.54
2022-12-25T01:34:48.143Z,9.58
2022-12-25T01:36:53.914Z,9.61
2022-12-25T01:38:57.375Z,9.69
2022-12-25T01:41:02.109Z,9.70
2022-12-25T01:43:05.547Z,9.56
2022-12-25T01:45:32.875Z,9.56
2022-12-25T01:47:36.562Z,9.61
2022-12-25T01:49:42.028Z,9.58
2022-12-25T01:51:49.188Z,9.63
2022-12-25T01:53:52.566Z,9.64
2022-12-25T01:56:02.518Z,9.68
2022-12-25T01:58:07.432Z,9.70
2022-12-25T02:00:12.919Z,9.74
2022-12-25T02:02:16.891Z,9.62
2022-12-25T02:04:38.440Z,9.73
2022-12-25T02:06:42.821Z,9.70
2022-12-25T02:08:46.319Z,9.62
2022-12-25T02:10:49.957Z,9.56
2022-12-25T02:12:54.059Z,9.60
2022-12-25T02:15:06.102Z,9.56
2022-12-25T02:17:19.112Z,9.74
2022-12-25T02:19:39.095Z,9.68
2022-12-25T02:22:01.492Z,9.69
2022-12-25T02:24:22.829Z,9.67
2022-12-25T02:26:54.297Z,9.72
2022-12-25T02:29:04.496Z,9.75
2022-12-25T02:31:13.199Z,9.65
2022-12-25T02:33:41.101Z,9.74
2022-12-25T02:35:48.624Z,9.80
2022-12-25T02:37:57.684Z,9.79
2022-12-25T02:40:06.758Z,9.78
2022-12-25T02:42:15.163Z,9.82
2022-12-25T02:44:41.427Z,9.76
2022-12-25T02:47:03.401Z,9.79
2022-12-25T02:49:27.991Z,9.74
2022-12-25T02:51:54.672Z,9.81
2022-12-25T02:54:17.927Z,9.78
2022-12-25T02:56:41.456Z,9.77
2022-12-25T02:59:04.687Z,9.71
2022-12-25T03:01:32.040Z,9.75
2022-12-25T03:03:58.398Z,9.79
2022-12-25T03:06:23.351Z,9.84
2022-12-25T03:08:34.992Z,9.69
2022-12-25T03:10:59.827Z,9.80
2022-12-25T03:13:07.591Z,9.79
2022-12-25T03:15:30.627Z,9.68
2022-12-25T03:17:36.249Z,9.83
2022-12-25T03:19:57.200Z,9.91
2022-12-25T03:22:17.916Z,9.89
2022-12-25T03:24:38.740Z,9.91
2022-12-25T03:26:57.432Z,9.86
2022-12-25T03:29:00.854Z,9.90
2022-12-25T03:31:12.500Z,9.94
2022-12-25T03:33:44.326Z,9.97
2022-12-25T03:36:02.785Z,9.92
2022-12-25T03:38:37.676Z,10.00
2022-12-25T03:41:10.311Z,9.99
2022-12-25T03:43:52.563Z,10.01
2022-12-25T03:46:17.270Z,10.01
2022-12-25T03:48:41.470Z,10.03
2022-12-25T03:51:06.326Z,10.02
2022-12-25T03:53:35.165Z,9.97
2022-12-25T03:55:54.429Z,9.94
2022-12-25T03:58:15.253Z,10.01
2022-12-25T04:00:36.533Z,9.98
2022-12-25T04:02:57.755Z,9.93
2022-12-25T04:05:20.274Z,9.98
2022-12-25T04:07:40.995Z,9.99
2022-12-25T04:10:02.267Z,10.02
2022-12-25T04:12:23.900Z,9.90
2022-12-25T04:14:44.653Z,10.00
2022-12-25T04:17:05.458Z,10.01
2022-12-25T04:19:27.865Z,9.97
2022-12-25T04:21:50.098Z,9.98
2022-12-25T04:24:10.846Z,10.05
2022-12-25T04:26:32.491Z,10.03
2022-12-25T04:28:54.470Z,9.96
2022-12-25T04:31:19.337Z,9.91
2022-12-25T04:33:40.509Z,9.93
2022-12-25T04:36:05.349Z,9.97
2022-12-25T04:38:10.125Z,10.00
2022-12-25T04:40:13.773Z,9.95
2022-12-25T04:42:17.320Z,9.95
2022-12-25T04:44:20.706Z,10.00
2022-12-25T04:46:24.056Z,10.03
2022-12-25T04:48:28.681Z,10.03
2022-12-25T04:50:31.988Z,9.90
2022-12-25T04:52:36.441Z,10.01
2022-12-25T04:54:41.367Z,10.04
2022-12-25T04:56:45.927Z,10.04
2022-12-25T04:58:49.945Z,10.02
2022-12-25T05:00:53.306Z,10.06
2022-12-25T05:02:56.879Z,10.03
2022-12-25T05:05:00.386Z,10.04
2022-12-25T05:07:03.954Z,10.03
2022-12-25T05:09:07.692Z,9.99
2022-12-25T05:11:15.221Z,10.00
2022-12-25T05:13:18.776Z,9.96
2022-12-25T05:15:22.283Z,9.95
2022-12-25T05:17:25.735Z,9.97
2022-12-25T05:19:29.163Z,9.95
2022-12-25T05:21:32.533Z,9.92
2022-12-25T05:23:35.865Z,9.99
2022-12-25T05:25:40.721Z,9.96
2022-12-25T05:27:48.786Z,9.96
2022-12-25T05:29:57.027Z,9.95
2022-12-25T05:32:00.540Z,10.02
2022-12-25T05:34:04.589Z,10.01
2022-12-25T05:36:10.611Z,10.01
2022-12-25T05:38:13.997Z,10.03
2022-12-25T05:40:17.624Z,10.03
2022-12-25T05:42:21.136Z,10.05
2022-12-25T05:44:25.892Z,9.95
2022-12-25T05:46:29.429Z,9.90
2022-12-25T05:48:33.197Z,9.83
2022-12-25T05:50:38.601Z,9.79
2022-12-25T05:52:42.192Z,9.84
2022-12-25T05:54:46.753Z,9.87
2022-12-25T05:56:50.221Z,9.91
2022-12-25T05:58:53.600Z,10.00
2022-12-25T06:00:58.294Z,10.00
2022-12-25T06:03:01.799Z,9.98
2022-12-25T06:05:05.893Z,9.99
2022-12-25T06:07:09.388Z,10.02
2022-12-25T06:09:14.141Z,10.02
2022-12-25T06:11:17.686Z,10.01
2022-12-25T06:13:21.065Z,10.01
2022-12-25T06:15:24.494Z,9.93
2022-12-25T06:17:29.179Z,10.02
2022-12-25T06:19:32.468Z,10.08
2022-12-25T06:21:36.020Z,9.90
2022-12-25T06:23:40.234Z,10.02
2022-12-25T06:25:43.702Z,9.98
2022-12-25T06:27:47.086Z,9.94
2022-12-25T06:29:50.502Z,9.90
2022-12-25T06:31:57.217Z,9.90
2022-12-25T06:34:02.105Z,9.97
2022-12-25T06:36:07.492Z,10.01
2022-12-25T06:38:10.814Z,9.98
2022-12-25T06:40:14.703Z,9.97
2022-12-25T06:42:18.207Z,9.97
2022-12-25T06:44:22.317Z,9.86
2022-12-25T06:46:27.738Z,9.90
2022-12-25T06:48:35.181Z,9.91
2022-12-25T06:50:43.482Z,9.85
2022-12-25T06:52:47.127Z,9.92
2022-12-25T06:54:50.444Z,9.92
2022-12-25T06:56:53.776Z,9.89
2022-12-25T06:58:59.271Z,9.82
2022-12-25T07:01:15.485Z,9.84
2022-12-25T07:03:22.544Z,9.87
2022-12-25T07:05:25.900Z,9.84
2022-12-25T07:07:30.617Z,9.85
2022-12-25T07:09:34.370Z,9.93
2022-12-25T07:11:37.951Z,9.95
2022-12-25T07:13:41.690Z,9.97
2022-12-25T07:15:45.009Z,9.94
2022-12-25T07:17:48.583Z,9.97
2022-12-25T07:19:52.452Z,9.85
2022-12-25T07:21:55.849Z,9.93
2022-12-25T07:24:00.520Z,10.00
2022-12-25T07:26:04.431Z,10.04
2022-12-25T07:28:07.745Z,9.59
2022-12-25T07:30:12.247Z,9.93
2022-12-25T07:32:15.713Z,9.66
2022-12-25T07:34:19.692Z,9.91
2022-12-25T07:36:23.185Z,9.76
2022-12-25T07:38:26.946Z,9.87
2022-12-25T07:40:31.836Z,9.92
2022-12-25T07:42:35.232Z,9.88
2022-12-25T07:44:38.670Z,9.90
2022-12-25T07:46:42.121Z,9.89
2022-12-25T07:48:45.706Z,9.91
2022-12-25T07:50:49.000Z,9.90
2022-12-25T07:52:52.270Z,9.92
2022-12-25T07:54:55.707Z,9.87
2022-12-25T07:57:01.972Z,9.89
2022-12-25T07:59:05.552Z,9.94
2022-12-25T08:01:11.524Z,9.97
2022-12-25T08:03:16.918Z,9.93
2022-12-25T08:05:20.397Z,9.96
2022-12-25T08:07:24.637Z,9.95
2022-12-25T08:09:28.015Z,10.00
2022-12-25T08:11:31.379Z,10.02
2022-12-25T08:13:36.990Z,10.06
2022-12-25T08:15:40.875Z,10.11
2022-12-25T08:17:44.177Z,10.10
2022-12-25T08:19:47.569Z,10.18
2022-12-25T08:21:50.940Z,10.17
2022-12-25T08:23:54.399Z,10.11
2022-12-25T08:26:04.622Z,10.08
2022-12-25T08:28:09.110Z,10.03
2022-12-25T08:30:14.606Z,10.10
2022-12-25T08:32:18.167Z,10.09
2022-12-25T08:34:21.932Z,10.05
2022-12-25T08:36:25.983Z,10.03
2022-12-25T08:38:29.510Z,10.03
2022-12-25T08:40:33.436Z,10.03
2022-12-25T08:42:36.857Z,10.00
2022-12-25T08:44:40.378Z,9.94
2022-12-25T08:46:45.203Z,10.00
2022-12-25T08:48:50.257Z,10.01
2022-12-25T08:50:54.509Z,9.99
2022-12-25T08:52:57.871Z,10.00
2022-12-25T08:55:01.301Z,10.06
2022-12-25T08:57:05.046Z,10.08
2022-12-25T08:59:08.426Z,10.06
2022-12-25T09:01:12.843Z,10.09
2022-12-25T09:03:18.012Z,10.22
2022-12-25T09:05:21.485Z,10.19
2022-12-25T09:07:24.849Z,10.21
2022-12-25T09:09:28.643Z,10.13
2022-12-25T09:11:32.027Z,10.18
2022-12-25T09:13:35.771Z,10.19
2022-12-25T09:15:39.555Z,10.11
2022-12-25T09:17:42.967Z,10.07
2022-12-25T09:19:47.783Z,10.08
2022-12-25T09:21:51.080Z,10.11
2022-12-25T09:23:54.507Z,10.09
2022-12-25T09:25:59.990Z,10.13
2022-12-25T09:28:03.347Z,10.26
2022-12-25T09:30:08.106Z,10.12
2022-12-25T09:32:11.565Z,10.23
2022-12-25T09:34:18.766Z,10.29
2022-12-25T09:36:23.871Z,10.26
2022-12-25T09:38:27.969Z,10.08
2022-12-25T09:40:33.272Z,10.15
2022-12-25T09:42:36.858Z,10.16
2022-12-25T09:44:45.856Z,10.19
2022-12-25T09:46:54.997Z,10.20
2022-12-25T09:49:04.218Z,10.21
2022-12-25T09:51:11.322Z,10.22
2022-12-25T09:53:20.557Z,10.24
2022-12-25T09:55:26.547Z,10.16
2022-12-25T09:57:30.039Z,10.10
2022-12-25T09:59:33.405Z,10.16
2022-12-25T10:01:42.239Z,10.06
2022-12-25T10:04:11.296Z,10.03
2022-12-25T10:06:20.212Z,10.02
2022-12-25T10:08:38.806Z,10.08
2022-12-25T10:10:52.282Z,10.13
2022-12-25T10:13:08.330Z,10.17
2022-12-25T10:15:27.441Z,10.19
2022-12-25T10:17:41.472Z,10.05
2022-12-25T10:19:53.671Z,9.99
2022-12-25T10:22:02.380Z,9.90
2022-12-25T10:24:19.756Z,9.93
2022-12-25T10:26:25.399Z,9.99
2022-12-25T10:28:35.948Z,10.02
2022-12-25T10:30:42.059Z,9.99
2022-12-25T10:32:47.604Z,10.04
2022-12-25T10:34:51.433Z,9.93
2022-12-25T10:36:54.837Z,10.00
2022-12-25T10:38:58.718Z,10.01
2022-12-25T10:41:19.011Z,10.01
2022-12-25T10:43:26.563Z,10.03
2022-12-25T10:45:29.953Z,10.01
2022-12-25T10:47:37.917Z,10.02
2022-12-25T10:49:41.501Z,9.93
2022-12-25T10:51:45.159Z,9.94
2022-12-25T10:53:48.509Z,9.91
2022-12-25T10:55:59.789Z,9.82
2022-12-25T10:58:04.515Z,9.94
2022-12-25T11:00:21.584Z,9.91
2022-12-25T11:02:28.658Z,9.85
2022-12-25T11:04:36.756Z,9.98
2022-12-25T11:06:40.143Z,9.96
2022-12-25T11:08:43.465Z,9.95
2022-12-25T11:10:54.534Z,9.91
2022-12-25T11:12:58.615Z,9.96
2022-12-25T11:15:25.372Z,9.98
2022-12-25T11:17:29.398Z,10.01
2022-12-25T11:19:33.747Z,9.99
2022-12-25T11:21:38.380Z,10.03
2022-12-25T11:23:47.366Z,10.04
2022-12-25T11:25:58.872Z,10.01
2022-12-25T11:28:04.107Z,10.00
2022-12-25T11:30:16.367Z,9.99
2022-12-25T11:32:23.504Z,10.02
2022-12-25T11:34:32.341Z,10.00
2022-12-25T11:36:45.352Z,10.05
2022-12-25T11:38:48.879Z,10.02
2022-12-25T11:40:54.704Z,10.03
2022-12-25T11:43:08.207Z,10.05
2022-12-25T11:45:17.813Z,10.06
2022-12-25T11:47:27.016Z,10.18
2022-12-25T11:49:31.954Z,10.25
2022-12-25T11:51:39.937Z,10.17
2022-12-25T11:53:49.603Z,10.22
2022-12-25T11:55:57.855Z,10.22
2022-12-25T11:58:07.342Z,10.24
2022-12-25T12:00:16.610Z,10.25
2022-12-25T12:02:28.445Z,10.27
2022-12-25T12:04:42.556Z,10.22
2022-12-25T12:06:51.960Z,10.32
2022-12-25T12:09:06.397Z,10.36
2022-12-25T12:11:19.224Z,10.38
2022-12-25T12:13:36.535Z,10.29
2022-12-25T12:15:44.885Z,10.35
2022-12-25T12:17:48.371Z,10.34
2022-12-25T12:19:52.571Z,10.36
2022-12-25T12:21:58.040Z,10.35
2022-12-25T12:24:06.440Z,10.34
2022-12-25T12:26:19.897Z,10.32
2022-12-25T12:28:27.190Z,10.33
2022-12-25T12:30:32.447Z,10.40
2022-12-25T12:32:41.780Z,10.41
2022-12-25T12:34:50.506Z,10.38
2022-12-25T12:37:01.619Z,10.44
2022-12-25T12:39:06.253Z,10.35
2022-12-25T12:41:12.085Z,10.45
2022-12-25T12:43:29.357Z,10.43
2022-12-25T12:45:35.760Z,10.45
2022-12-25T12:47:43.268Z,10.45
2022-12-25T12:50:01.869Z,10.61
2022-12-25T12:52:08.386Z,10.57
2022-12-25T12:54:20.582Z,10.58
2022-12-25T12:56:25.390Z,10.58
2022-12-25T12:58:33.545Z,10.42
2022-12-25T13:00:47.642Z,10.61
2022-12-25T13:03:27.674Z,10.12
2022-12-25T13:05:39.054Z,10.54
2022-12-25T13:07:54.455Z,10.56
2022-12-25T13:10:07.745Z,10.59
2022-12-25T13:12:14.987Z,10.60
2022-12-25T13:14:21.634Z,10.51
2022-12-25T13:16:28.355Z,10.66
2022-12-25T13:18:34.917Z,10.66
2022-12-25T13:20:45.854Z,10.72
2022-12-25T13:22:52.893Z,10.78
2022-12-25T13:24:57.944Z,10.83
2022-12-25T13:27:01.995Z,10.82
2022-12-25T13:29:11.338Z,10.91
2022-12-25T13:31:19.610Z,10.87
2022-12-25T13:33:23.308Z,10.85
2022-12-25T13:35:28.687Z,10.95
2022-12-25T13:37:32.752Z,10.92
2022-12-25T13:39:37.879Z,10.60
2022-12-25T13:42:01.365Z,10.92
2022-12-25T13:44:07.749Z,10.91
2022-12-25T13:46:14.078Z,10.84
2022-12-25T13:48:20.128Z,11.00
2022-12-25T13:50:27.060Z,10.96
2022-12-25T13:52:37.407Z,11.02
2022-12-25T13:54:41.501Z,10.97
2022-12-25T13:56:49.385Z,11.04
2022-12-25T13:58:53.020Z,11.06
2022-12-25T14:00:58.635Z,10.99
2022-12-25T14:03:02.641Z,11.18
2022-12-25T14:05:24.141Z,11.18
2022-12-25T14:07:28.554Z,11.19
2022-12-25T14:09:33.862Z,11.17
2022-12-25T14:11:37.480Z,11.25
2022-12-25T14:13:43.873Z,11.25
2022-12-25T14:15:48.263Z,11.23
2022-12-25T14:17:53.110Z,11.24
2022-12-25T14:20:07.800Z,11.22
2022-12-25T14:22:19.019Z,11.13
2022-12-25T14:24:25.725Z,11.19
2022-12-25T14:26:32.536Z,11.16
2022-12-25T14:28:37.715Z,11.19
2022-12-25T14:30:43.454Z,11.18
2022-12-25T14:32:51.920Z,11.07
2022-12-25T14:34:57.889Z,11.15
2022-12-25T14:37:02.566Z,11.21
2022-12-25T14:39:08.189Z,11.21
2022-12-25T14:41:33.473Z,11.19
2022-12-25T14:43:40.392Z,11.24
2022-12-25T14:45:43.770Z,11.24
2022-12-25T14:47:52.760Z,11.23
2022-12-25T14:49:56.730Z,11.25
2022-12-25T14:52:00.307Z,11.34
2022-12-25T14:54:15.277Z,11.37
2022-12-25T14:56:21.260Z,11.41
2022-12-25T14:58:28.630Z,11.38
2022-12-25T15:00:35.766Z,11.40
2022-12-25T15:02:46.686Z,11.42
2022-12-25T15:04:50.419Z,11.41
2022-12-25T15:06:56.551Z,11.41
2022-12-25T15:09:01.608Z,11.38
2022-12-25T15:11:05.403Z,11.45
2022-12-25T15:13:09.229Z,11.43
2022-12-25T15:15:12.621Z,11.34
2022-12-25T15:17:25.354Z,11.41
2022-12-25T15:19:37.375Z,11.56
2022-12-25T15:21:44.364Z,11.54
2022-12-25T15:23:48.106Z,11.57
2022-12-25T15:25:51.798Z,11.57
2022-12-25T15:27:55.378Z,11.59
2022-12-25T15:30:09.861Z,11.51
2022-12-25T15:32:20.343Z,11.65
2022-12-25T15:34:23.753Z,11.67
2022-12-25T15:36:28.307Z,11.63
2022-12-25T15:38:36.545Z,11.64
2022-12-25T15:40:40.853Z,11.67
2022-12-25T15:42:45.393Z,11.62
2022-12-25T15:44:48.745Z,11.73
2022-12-25T15:46:52.533Z,11.77
2022-12-25T15:48:57.493Z,11.78
2022-12-25T15:51:00.907Z,11.81
2022-12-25T15:53:04.737Z,11.82
2022-12-25T15:55:09.042Z,11.82
2022-12-25T15:57:19.506Z,11.83
2022-12-25T15:59:23.849Z,11.87
2022-12-25T16:01:27.285Z,11.82
2022-12-25T16:03:31.006Z,11.87
2022-12-25T16:05:35.796Z,11.87
2022-12-25T16:07:39.775Z,11.77
2022-12-25T16:09:43.830Z,11.93
2022-12-25T16:11:48.240Z,11.93
2022-12-25T16:13:51.592Z,11.91
2022-12-25T16:15:54.983Z,11.88
2022-12-25T16:17:58.411Z,11.91
2022-12-25T16:20:01.735Z,11.89
2022-12-25T16:22:12.810Z,11.92
2022-12-25T16:24:16.229Z,11.91
2022-12-25T16:26:19.846Z,11.96
2022-12-25T16:28:23.248Z,11.95
2022-12-25T16:30:26.620Z,11.93
2022-12-25T16:32:30.260Z,11.98
2022-12-25T16:34:33.623Z,11.98
2022-12-25T16:36:37.751Z,12.02
2022-12-25T16:38:42.526Z,12.03
2022-12-25T16:40:46.719Z,11.92
2022-12-25T16:42:50.096Z,12.07
2022-12-25T16:44:54.207Z,12.07
2022-12-25T16:46:57.624Z,12.06
2022-12-25T16:49:01.126Z,12.07
2022-12-25T16:51:09.739Z,12.11
2022-12-25T16:53:13.343Z,12.10
2022-12-25T16:55:18.461Z,12.08
2022-12-25T16:57:21.813Z,12.12
2022-12-25T16:59:25.108Z,12.08
2022-12-25T17:01:28.734Z,12.11
2022-12-25T17:03:32.536Z,12.06
2022-12-25T17:05:36.242Z,12.08
2022-12-25T17:07:39.660Z,12.13
2022-12-25T17:09:44.760Z,12.06
2022-12-25T17:11:49.554Z,12.03
2022-12-25T17:13:52.865Z,12.04
2022-12-25T17:15:56.325Z,12.05
2022-12-25T17:17:59.715Z,12.04
2022-12-25T17:20:03.985Z,12.06
2022-12-25T17:22:07.612Z,12.04
2022-12-25T17:24:11.634Z,12.02
2022-12-25T17:26:15.058Z,12.01
2022-12-25T17:28:19.796Z,12.00
2022-12-25T17:30:23.303Z,12.00
2022-12-25T17:32:26.665Z,11.89
2022-12-25T17:34:30.232Z,12.03
2022-12-25T17:36:34.056Z,12.04
2022-12-25T17:38:38.059Z,12.03
2022-12-25T17:40:41.389Z,12.01
2022-12-25T17:42:44.761Z,12.08
2022-12-25T17:44:49.522Z,12.04
2022-12-25T17:46:53.022Z,12.07
2022-12-25T17:48:59.157Z,12.08
2022-12-25T17:51:03.107Z,12.08
2022-12-25T17:53:06.648Z,12.07
2022-12-25T17:55:10.645Z,12.06
2022-12-25T17:57:14.138Z,12.09
2022-12-25T17:59:19.130Z,12.09
2022-12-25T18:01:25.305Z,11.99
2022-12-25T18:03:28.812Z,12.19
2022-12-25T18:05:35.890Z,12.23
2022-12-25T18:07:39.523Z,12.22
2022-12-25T18:09:42.850Z,12.21
2022-12-25T18:11:46.541Z,12.16
2022-12-25T18:13:53.453Z,12.20
2022-12-25T18:15:56.951Z,12.21
2022-12-25T18:18:01.835Z,12.19
2022-12-25T18:20:05.928Z,12.21
2022-12-25T18:22:09.279Z,12.22
2022-12-25T18:24:12.759Z,12.23
2022-12-25T18:26:16.213Z,12.23
2022-12-25T18:28:19.681Z,12.26
2022-12-25T18:30:23.071Z,12.27
2022-12-25T18:32:28.318Z,12.25
2022-12-25T18:34:33.282Z,12.23
2022-12-25T18:36:36.944Z,12.23
2022-12-25T18:38:40.388Z,12.20
2022-12-25T18:40:44.811Z,12.25
2022-12-25T18:42:52.315Z,12.23
2022-12-25T18:44:58.386Z,12.22
2022-12-25T18:47:01.767Z,12.29
2022-12-25T18:49:05.313Z,12.29
2022-12-25T18:51:12.653Z,12.33
2022-12-25T18:53:17.398Z,12.28
2022-12-25T18:55:20.805Z,12.36
2022-12-25T18:57:24.262Z,12.34
2022-12-25T18:59:29.245Z,12.38
2022-12-25T19:01:32.722Z,12.41
2022-12-25T19:03:36.165Z,12.40
2022-12-25T19:05:40.342Z,12.42
2022-12-25T19:07:45.067Z,12.40
2022-12-25T19:09:48.550Z,12.40
2022-12-25T19:11:53.609Z,12.48
2022-12-25T19:13:57.634Z,12.39
2022-12-25T19:16:01.095Z,12.46
2022-12-25T19:18:04.581Z,12.49
2022-12-25T19:20:09.244Z,12.48
2022-12-25T19:22:12.941Z,12.48
2022-12-25T19:24:17.670Z,12.55
2022-12-25T19:26:21.835Z,12.49
2022-12-25T19:28:25.653Z,12.55
2022-12-25T19:30:29.112Z,12.50
2022-12-25T19:32:32.561Z,12.55
2022-12-25T19:34:36.118Z,12.53
2022-12-25T19:36:40.171Z,12.50
2022-12-25T19:38:44.438Z,12.47
2022-12-25T19:41:01.181Z,12.43
2022-12-25T19:43:04.733Z,12.44
2022-12-25T19:45:09.082Z,12.11
2022-12-25T19:47:12.574Z,12.38
2022-12-25T19:49:16.128Z,12.45
2022-12-25T19:51:22.042Z,12.38
2022-12-25T19:53:25.771Z,12.38
2022-12-25T19:55:29.146Z,12.45
2022-12-25T19:57:34.396Z,12.41
2022-12-25T19:59:37.728Z,12.44
2022-12-25T20:01:41.960Z,12.43
2022-12-25T20:03:46.627Z,12.40
2022-12-25T20:05:50.079Z,12.34
2022-12-25T20:07:53.528Z,12.40
2022-12-25T20:09:56.890Z,12.48
2022-12-25T20:12:00.296Z,12.42
2022-12-25T20:14:05.697Z,12.47
2022-12-25T20:16:10.142Z,12.51
2022-12-25T20:18:13.507Z,12.53
2022-12-25T20:20:16.979Z,12.54
2022-12-25T20:22:20.308Z,12.51
2022-12-25T20:24:24.587Z,12.52
2022-12-25T20:26:30.381Z,12.51
2022-12-25T20:28:34.891Z,12.56
2022-12-25T20:30:41.262Z,12.60
2022-12-25T20:32:50.448Z,12.56
2022-12-25T20:34:54.170Z,12.63
2022-12-25T20:36:57.737Z,12.54
2022-12-25T20:39:01.420Z,12.58
2022-12-25T20:43:30.165Z,12.68
2022-12-25T20:45:33.739Z,12.67
2022-12-25T20:47:38.887Z,12.70
2022-12-25T20:49:42.218Z,12.71
2022-12-25T20:51:45.522Z,12.67
2022-12-25T20:53:49.833Z,12.68
2022-12-25T20:55:53.178Z,12.89
2022-12-25T20:57:56.583Z,12.79
2022-12-25T20:59:59.909Z,12.71
2022-12-25T21:02:03.356Z,12.64
2022-12-25T21:04:12.916Z,12.65
2022-12-25T21:06:19.310Z,12.62
2022-12-25T21:08:26.129Z,12.52
2022-12-25T21:10:29.516Z,12.62
2022-12-25T21:12:32.910Z,12.58
2022-12-25T21:14:37.054Z,12.65
2022-12-25T21:16:40.493Z,12.61
2022-12-25T21:18:43.897Z,12.57
2022-12-25T21:20:50.815Z,12.49
2022-12-25T21:22:54.141Z,12.62
2022-12-25T21:24:57.590Z,12.53
2022-12-25T21:27:01.075Z,12.54
2022-12-25T21:29:04.804Z,12.60
2022-12-25T21:31:09.027Z,12.61
2022-12-25T21:33:45.684Z,12.57
2022-12-25T21:35:50.414Z,12.52
2022-12-25T21:37:53.811Z,12.53
2022-12-25T21:39:57.145Z,12.38
2022-12-25T21:42:00.540Z,12.49
2022-12-25T21:44:04.020Z,12.50
2022-12-25T21:46:09.420Z,12.56
2022-12-25T21:48:13.328Z,12.56
2022-12-25T21:50:39.083Z,12.57
2022-12-25T21:52:44.153Z,12.54
2022-12-25T21:54:47.468Z,12.57
2022-12-25T21:56:51.179Z,12.61
2022-12-25T21:58:54.587Z,12.62
2022-12-25T22:01:03.218Z,12.60
2022-12-25T22:03:06.692Z,12.68
2022-12-25T22:05:30.492Z,12.70
2022-12-25T22:07:33.085Z,12.70
2022-12-25T22:09:38.352Z,12.54
2022-12-25T22:11:59.634Z,12.69
2022-12-25T22:14:16.923Z,12.66
2022-12-25T22:16:38.285Z,12.67
2022-12-25T22:18:59.504Z,12.67
2022-12-25T22:21:02.938Z,12.66
2022-12-25T22:23:06.501Z,12.68
2022-12-25T22:25:12.009Z,12.66
2022-12-25T22:27:15.390Z,12.67
2022-12-25T22:29:18.717Z,12.64
2022-12-25T22:31:22.152Z,12.72
2022-12-25T22:33:27.946Z,12.71
2022-12-25T22:35:31.369Z,12.70
2022-12-25T22:37:35.865Z,12.63
2022-12-25T22:39:39.361Z,12.63
2022-12-25T22:41:44.096Z,12.71
2022-12-25T22:46:10.840Z,12.83
2022-12-25T22:48:14.358Z,12.85
2022-12-25T22:50:17.758Z,12.85
2022-12-25T22:52:21.186Z,12.79
2022-12-25T22:54:25.700Z,12.89
2022-12-25T22:56:29.117Z,12.94
2022-12-25T22:58:34.338Z,12.91
2022-12-25T23:00:44.243Z,12.87
2022-12-25T23:02:49.527Z,12.90
2022-12-25T23:04:53.050Z,12.96
2022-12-25T23:06:56.671Z,12.96
2022-12-25T23:09:00.335Z,12.97
2022-12-25T23:11:04.643Z,12.91
2022-12-25T23:13:27.869Z,12.88
2022-12-25T23:15:32.740Z,12.91
2022-12-25T23:17:53.799Z,12.91
2022-12-25T23:20:15.624Z,12.95
2022-12-25T23:22:35.913Z,12.99
2022-12-25T23:24:57.015Z,13.01
2022-12-25T23:27:00.404Z,13.00
2022-12-25T23:29:21.586Z,12.99
2022-12-25T23:31:29.295Z,12.98
2022-12-25T23:33:32.925Z,12.99
2022-12-25T23:35:36.265Z,13.00
2022-12-25T23:37:39.667Z,13.01
2022-12-25T23:39:42.996Z,13.05
2022-12-25T23:41:46.394Z,12.98
2022-12-25T23:43:49.796Z,12.92
2022-12-25T23:45:53.071Z,12.87
2022-12-25T23:47:58.139Z,12.81
2022-12-25T23:50:01.505Z,12.73
2022-12-25T23:52:05.058Z,12.72
2022-12-25T23:54:09.256Z,12.66
2022-12-25T23:56:13.294Z,12.58
2022-12-25T23:58:16.604Z,12.51
